Time;durP1;ratioP1;P1;durP2;ratioP2;P2;SDS_P1;SDS_P2;PMS_P1;PMS_P2;Temp;Humidity;BMP_temperature;BMP_pressure;BME280_temperature;BME280_humidity;BME280_pressure;Samples;Min_cycle;Max_cycle;Signal;HPM_P1;HPM_P2
2022/08/17 00:01:24;;;;;;;3.83;3.53;;;;;;;18.52;100.00;95824.34;5036709;27;101871;-64
2022/08/17 00:03:52;;;;;;;4.33;3.90;;;;;;;18.65;100.00;95821.47;5031240;28;102349;-64
2022/08/17 00:06:31;;;;;;;3.53;3.33;;;;;;;18.54;100.00;95819.41;5032766;27;106837;-64
2022/08/17 00:09:00;;;;;;;3.27;2.93;;;;;;;19.04;100.00;95824.06;5030640;28;102513;-64
2022/08/17 00:11:30;;;;;;;4.07;3.60;;;;;;;19.02;100.00;95822.81;5036762;27;105738;-64
2022/08/17 00:14:05;;;;;;;3.10;2.90;;;;;;;19.43;100.00;95823.94;5051548;27;101931;-64
2022/08/17 00:16:50;;;;;;;3.93;3.63;;;;;;;19.62;100.00;95813.56;5038947;27;102822;-64
2022/08/17 00:19:33;;;;;;;3.53;3.23;;;;;;;19.62;100.00;95823.59;5030697;28;102786;-64
2022/08/17 00:22:01;;;;;;;4.63;3.33;;;;;;;19.17;100.00;95819.63;5049268;27;102703;-64
2022/08/17 00:24:28;;;;;;;3.73;3.20;;;;;;;19.16;100.00;95823.44;5051081;27;102579;-64
2022/08/17 00:27:09;;;;;;;4.00;3.70;;;;;;;18.75;100.00;95820.41;5033266;27;105352;-64
2022/08/17 00:29:41;;;;;;;3.90;3.60;;;;;;;18.44;100.00;95819.69;5030744;27;105691;-64
2022/08/17 00:32:09;;;;;;;4.57;3.47;;;;;;;18.48;100.00;95826.06;5040126;27;104639;-64
2022/08/17 00:34:36;;;;;;;4.20;3.90;;;;;;;18.45;100.00;95818.59;5031146;28;101915;-64
2022/08/17 00:37:13;;;;;;;4.50;4.20;;;;;;;18.17;100.00;95818.03;5030890;27;102579;-64
2022/08/17 00:39:40;;;;;;;4.00;3.70;;;;;;;18.34;100.00;95814.59;5030190;27;105349;-64
2022/08/17 00:42:13;;;;;;;4.10;3.80;;;;;;;17.99;100.00;95815.56;5050887;27;102019;-64
2022/08/17 00:44:42;;;;;;;3.70;3.40;;;;;;;17.97;100.00;95812.38;5041047;27;105578;-64
2022/08/17 00:47:43;;;;;;;3.87;3.50;;;;;;;18.35;100.00;95805.41;5050483;27;102765;-64
2022/08/17 00:51:03;;;;;;;4.10;3.80;;;;;;;18.13;100.00;95805.47;5037815;27;101674;-64
2022/08/17 00:53:32;;;;;;;4.10;3.70;;;;;;;17.93;100.00;95811.44;5031081;27;101924;-64
2022/08/17 00:56:02;;;;;;;4.30;3.90;;;;;;;17.88;100.00;95806.97;5063344;27;101966;-64
2022/08/17 00:58:30;;;;;;;4.00;3.70;;;;;;;17.91;100.00;95808.25;5029954;27;105540;-64
2022/08/17 01:01:01;;;;;;;4.20;3.80;;;;;;;17.75;100.00;95802.47;5028727;28;104097;-64
2022/08/17 01:03:30;;;;;;;4.80;3.47;;;;;;;18.15;100.00;95801.38;5032601;27;101743;-64
2022/08/17 01:06:03;;;;;;;3.97;3.67;;;;;;;17.95;100.00;95796.56;5050940;27;102580;-64
2022/08/17 01:08:31;;;;;;;4.20;3.90;;;;;;;17.62;100.00;95799.88;5047058;27;106670;-64
2022/08/17 01:11:01;;;;;;;4.17;3.87;;;;;;;17.46;100.00;95793.31;5050401;27;101862;-64
2022/08/17 01:13:32;;;;;;;4.43;4.07;;;;;;;17.28;100.00;95792.38;5050171;27;105859;-64
2022/08/17 01:16:41;;;;;;;3.77;3.47;;;;;;;17.51;100.00;95790.50;5030929;27;101856;-64
2022/08/17 01:19:19;;;;;;;3.07;2.87;;;;;;;17.78;100.00;95785.75;5037163;27;102924;-64
2022/08/17 01:21:51;;;;;;;3.80;3.50;;;;;;;17.84;100.00;95781.81;5046179;27;105824;-64
2022/08/17 01:24:20;;;;;;;4.20;3.90;;;;;;;17.83;100.00;95779.44;5032377;27;101886;-64
2022/08/17 01:27:16;;;;;;;4.07;3.67;;;;;;;17.86;100.00;95773.41;5033758;27;102256;-64
2022/08/17 01:29:47;;;;;;;4.60;3.70;;;;;;;17.98;100.00;95781.72;5031955;28;105559;-64
2022/08/17 01:32:15;;;;;;;4.70;3.70;;;;;;;18.08;100.00;95776.81;5050757;27;101750;-64
2022/08/17 01:34:43;;;;;;;4.13;3.83;;;;;;;18.12;100.00;95779.69;5049871;27;103416;-64
2022/08/17 01:37:11;;;;;;;4.03;3.73;;;;;;;18.01;100.00;95767.63;5055410;27;105767;-64
2022/08/17 01:39:44;;;;;;;4.33;3.97;;;;;;;17.69;100.00;95774.16;5053736;27;102532;-64
2022/08/17 01:42:16;;;;;;;3.70;3.40;;;;;;;18.16;100.00;95773.34;5039383;27;103164;-64
2022/08/17 01:44:43;;;;;;;4.80;4.40;;;;;;;17.98;100.00;95779.00;5032147;27;101906;-64
2022/08/17 01:47:11;;;;;;;4.07;3.77;;;;;;;18.09;100.00;95770.34;5033625;28;102436;-64
2022/08/17 01:49:43;;;;;;;4.07;3.77;;;;;;;18.13;100.00;95778.56;5040188;27;105788;-64
2022/08/17 01:52:12;;;;;;;5.27;4.63;;;;;;;18.09;100.00;95774.94;5039851;27;101851;-64
2022/08/17 01:54:43;;;;;;;4.27;3.87;;;;;;;17.92;100.00;95775.66;5031851;27;105317;-64
2022/08/17 01:57:11;;;;;;;4.93;4.43;;;;;;;17.72;100.00;95778.09;5033159;27;103109;-64
2022/08/17 01:59:38;;;;;;;5.20;4.30;;;;;;;17.17;100.00;95787.56;5036778;28;102335;-64
2022/08/17 02:02:06;;;;;;;5.03;4.37;;;;;;;17.01;100.00;95784.44;5044462;27;103187;-64
2022/08/17 02:04:33;;;;;;;6.37;4.97;;;;;;;16.75;100.00;95788.03;5053208;27;101844;-64
2022/08/17 02:07:11;;;;;;;6.40;5.90;;;;;;;16.37;100.00;95795.53;5053358;27;102373;-64
2022/08/17 02:09:38;;;;;;;6.73;5.80;;;;;;;16.46;100.00;95785.69;5052183;27;102619;-64
2022/08/17 02:12:08;;;;;;;5.37;4.87;;;;;;;16.63;100.00;95780.47;5041252;27;102223;-64
2022/08/17 02:14:35;;;;;;;5.33;4.93;;;;;;;17.12;100.00;95775.03;5042160;27;102883;-64
2022/08/17 02:20:30;;;;;;;5.53;5.03;;;;;;;17.50;100.00;95767.41;5051505;27;101779;-64
2022/08/17 02:22:59;;;;;;;5.53;5.00;;;;;;;17.61;100.00;95774.09;5035628;27;105374;-64
2022/08/17 02:25:30;;;;;;;4.90;4.50;;;;;;;17.06;100.00;95778.16;5048244;27;101854;-64
2022/08/17 02:28:00;;;;;;;6.63;5.00;;;;;;;17.23;100.00;95773.69;5052574;27;102318;-64
2022/08/17 02:30:28;;;;;;;5.57;5.00;;;;;;;17.26;100.00;95766.91;5032388;27;102507;-64
2022/08/17 02:32:55;;;;;;;6.93;5.90;;;;;;;17.51;100.00;95772.47;5049608;27;101976;-64
2022/08/17 02:35:23;;;;;;;4.83;4.43;;;;;;;17.67;100.00;95772.88;5032458;27;102271;-64
2022/08/17 02:37:51;;;;;;;5.47;4.93;;;;;;;17.63;100.00;95770.00;5032350;28;103122;-64
2022/08/17 02:40:20;;;;;;;4.37;4.07;;;;;;;17.84;100.00;95772.94;5046108;27;101898;-64
2022/08/17 02:42:48;;;;;;;5.33;4.90;;;;;;;17.77;100.00;95768.00;5038664;27;102907;-64
2022/08/17 02:45:40;;;;;;;4.07;3.77;;;;;;;18.10;100.00;95771.13;5033729;27;103174;-64
2022/08/17 02:48:09;;;;;;;5.47;5.07;;;;;;;17.58;100.00;95769.31;5031288;28;105780;-64
2022/08/17 02:50:36;;;;;;;5.63;5.20;;;;;;;17.19;100.00;95766.53;5032867;27;102844;-64
2022/08/17 02:53:04;;;;;;;9.77;5.90;;;;;;;17.15;100.00;95761.00;5049472;27;101821;-64
2022/08/17 02:55:46;;;;;;;4.97;4.17;;;;;;;17.17;100.00;95760.69;5036175;27;102734;-64
2022/08/17 02:58:13;;;;;;;4.77;4.07;;;;;;;17.48;100.00;95766.91;5031884;28;101822;-64
2022/08/17 03:00:46;;;;;;;5.17;4.00;;;;;;;17.87;100.00;95758.88;5063381;27;102101;-64
2022/08/17 03:03:17;;;;;;;4.20;3.80;;;;;;;18.03;100.00;95751.97;5033189;27;101642;-64
2022/08/17 03:06:30;;;;;;;6.30;5.63;;;;;;;17.74;100.00;95751.69;5047975;27;105870;-64
2022/08/17 03:08:57;;;;;;;4.27;3.93;;;;;;;17.70;100.00;95746.16;5048851;27;102231;-64
2022/08/17 03:11:25;;;;;;;4.80;4.50;;;;;;;17.72;100.00;95751.22;5035898;27;102853;-64
2022/08/17 03:13:52;;;;;;;5.37;4.93;;;;;;;17.74;100.00;95740.94;5048680;27;101909;-64
2022/08/17 03:16:34;;;;;;;4.00;3.70;;;;;;;18.04;100.00;95753.56;5032292;28;102460;-64
2022/08/17 03:19:09;;;;;;;4.87;3.87;;;;;;;18.19;100.00;95750.41;5062274;27;105609;-64
2022/08/17 03:21:37;;;;;;;3.60;3.40;;;;;;;18.25;100.00;95746.50;5037479;27;101902;-64
2022/08/17 03:24:04;;;;;;;4.10;3.60;;;;;;;18.12;100.00;95747.38;5050527;27;104871;-64
2022/08/17 03:26:41;;;;;;;4.10;3.80;;;;;;;18.28;100.00;95745.84;5046947;27;103275;-64
2022/08/17 03:29:08;;;;;;;4.77;4.37;;;;;;;18.02;100.00;95739.59;5034177;28;101916;-64
2022/08/17 03:31:36;;;;;;;4.57;4.17;;;;;;;17.52;100.00;95738.31;5032254;27;104556;-64
2022/08/17 03:34:04;;;;;;;3.93;3.63;;;;;;;17.92;100.00;95743.38;5030494;27;102167;-64
2022/08/17 03:36:36;;;;;;;4.07;3.80;;;;;;;17.56;100.00;95742.75;5031988;28;103027;-64
2022/08/17 03:39:03;;;;;;;3.70;3.40;;;;;;;17.69;100.00;95736.50;5034909;27;103916;-64
2022/08/17 03:41:31;;;;;;;4.20;3.90;;;;;;;17.85;100.00;95734.97;5047004;27;102027;-64
2022/08/17 03:43:58;;;;;;;4.10;3.70;;;;;;;17.51;100.00;95742.09;5034863;27;105309;-64
2022/08/17 03:57:49;;;;;;;4.10;3.80;;;;;;;17.65;100.00;95748.19;5029872;28;105442;-64
2022/08/17 04:00:16;;;;;;;4.33;4.03;;;;;;;17.69;100.00;95755.31;5044799;27;105334;-64
2022/08/17 04:02:45;;;;;;;5.17;4.67;;;;;;;17.46;100.00;95753.78;5032591;27;101834;-64
2022/08/17 04:05:22;;;;;;;4.60;3.83;;;;;;;17.52;100.00;95757.13;5046133;27;102386;-64
2022/08/17 04:07:50;;;;;;;4.70;3.53;;;;;;;17.65;100.00;95762.41;5049818;27;105644;-64
2022/08/17 04:10:17;;;;;;;4.00;3.60;;;;;;;17.82;100.00;95769.78;5051446;27;101884;-64
2022/08/17 04:12:48;;;;;;;4.00;3.70;;;;;;;17.84;100.00;95767.56;5032574;27;102525;-64
2022/08/17 04:15:21;;;;;;;4.30;3.90;;;;;;;17.62;100.00;95764.94;5047589;27;105537;-64
2022/08/17 04:17:50;;;;;;;3.63;3.33;;;;;;;17.64;100.00;95765.41;5051579;27;102334;-64
2022/08/17 04:20:19;;;;;;;4.40;4.10;;;;;;;17.48;100.00;95759.63;5050018;27;102507;-64
2022/08/17 04:22:57;;;;;;;3.33;3.13;;;;;;;17.59;100.00;95754.78;5031773;27;101962;-64
2022/08/17 04:28:46;;;;;;;3.33;3.07;;;;;;;17.63;100.00;95769.19;5044438;27;102460;-64
2022/08/17 04:31:15;;;;;;;4.30;4.00;;;;;;;17.50;100.00;95767.41;5050941;27;101866;-64
2022/08/17 04:33:45;;;;;;;4.10;3.70;;;;;;;17.79;100.00;95773.06;5050937;27;102445;-64
2022/08/17 04:36:16;;;;;;;4.10;3.80;;;;;;;17.55;100.00;95778.81;5049266;27;105811;-64
2022/08/17 04:38:45;;;;;;;5.40;4.90;;;;;;;16.77;100.00;95786.63;5051369;27;101879;-64
2022/08/17 04:43:59;;;;;;;4.77;4.37;;;;;;;17.41;100.00;95774.63;5050056;27;101833;-64
2022/08/17 04:46:42;;;;;;;5.20;4.70;;;;;;;17.59;100.00;95776.28;5045078;27;104431;-64
2022/08/17 04:49:36;;;;;;;5.10;4.70;;;;;;;17.43;100.00;95764.38;5030114;27;102595;-64
2022/08/17 04:52:04;;;;;;;5.10;4.60;;;;;;;17.27;100.00;95773.88;5045979;27;101867;-64
2022/08/17 04:54:31;;;;;;;5.07;4.67;;;;;;;17.04;100.00;95783.03;5050472;27;102373;-64
2022/08/17 04:57:13;;;;;;;4.60;4.23;;;;;;;16.89;100.00;95781.50;5048514;27;105938;-64
2022/08/17 04:59:39;;;;;;;5.13;4.37;;;;;;;16.86;100.00;95778.63;5053889;27;101687;-64
2022/08/17 05:02:07;;;;;;;6.17;5.50;;;;;;;16.98;100.00;95776.19;5034423;27;103192;-64
2022/08/17 05:04:34;;;;;;;6.00;5.40;;;;;;;16.95;100.00;95776.81;5043049;27;102212;-64
2022/08/17 05:07:09;;;;;;;5.97;5.37;;;;;;;17.15;100.00;95781.69;5049377;27;105403;-63
2022/08/17 05:09:37;;;;;;;5.30;4.80;;;;;;;17.66;100.00;95782.03;5049799;27;104493;-63
2022/08/17 05:12:04;;;;;;;6.07;5.00;;;;;;;18.02;100.00;95782.66;5038445;27;101846;-64
2022/08/17 05:14:32;;;;;;;6.67;4.90;;;;;;;18.32;100.00;95774.53;5028833;27;105092;-64
2022/08/17 05:17:05;;;;;;;5.80;5.30;;;;;;;18.48;100.00;95778.38;5037614;27;105711;-64
2022/08/17 05:19:37;;;;;;;5.50;5.10;;;;;;;18.75;100.00;95782.69;5050611;27;101857;-64
2022/08/17 05:22:05;;;;;;;5.67;5.07;;;;;;;18.84;100.00;95776.19;5038417;27;105424;-64
2022/08/17 05:24:34;;;;;;;6.70;6.10;;;;;;;18.57;100.00;95784.56;5041661;27;101912;-64
2022/08/17 05:27:06;;;;;;;6.80;6.23;;;;;;;18.45;100.00;95783.59;5050634;27;102505;-64
2022/08/17 05:29:33;;;;;;;6.83;6.23;;;;;;;18.35;100.00;95783.88;5049777;27;101939;-64
2022/08/17 05:32:08;;;;;;;6.07;5.10;;;;;;;18.73;100.00;95784.91;5035631;27;101994;-64
2022/08/17 05:34:36;;;;;;;6.30;5.80;;;;;;;18.83;100.00;95777.31;5042535;27;102245;-64
2022/08/17 05:37:04;;;;;;;6.07;5.27;;;;;;;19.06;100.00;95773.34;5049841;27;102566;-64
2022/08/17 05:39:33;;;;;;;5.90;5.30;;;;;;;19.38;100.00;95769.34;5050148;27;101974;-64
2022/08/17 05:42:02;;;;;;;5.50;5.10;;;;;;;19.56;100.00;95766.31;5035608;27;106868;-64
2022/08/17 05:44:28;;;;;;;5.57;5.07;;;;;;;19.56;100.00;95773.63;5043516;27;103077;-64
2022/08/17 05:46:59;;;;;;;5.80;5.40;;;;;;;19.75;100.00;95774.03;5047121;27;106361;-64
2022/08/17 05:49:29;;;;;;;6.07;5.57;;;;;;;19.73;100.00;95771.63;5043581;27;101814;-64
2022/08/17 05:52:17;;;;;;;7.33;6.63;;;;;;;19.33;100.00;95772.22;5042509;27;101756;-64
2022/08/17 05:54:57;;;;;;;6.70;6.10;;;;;;;19.11;100.00;95759.69;5036903;27;102353;-64
2022/08/17 05:57:50;;;;;;;5.63;5.13;;;;;;;19.55;100.00;95769.31;5027839;28;105690;-64
2022/08/17 06:00:22;;;;;;;5.80;5.30;;;;;;;19.94;100.00;95772.53;5005429;28;101747;-64
2022/08/17 06:03:09;;;;;;;5.70;5.00;;;;;;;20.26;100.00;95771.94;5009249;28;102773;-64
2022/08/17 06:05:49;;;;;;;7.03;6.37;;;;;;;19.93;100.00;95762.84;4989063;28;102731;-64
2022/08/17 06:08:23;;;;;;;6.77;6.20;;;;;;;19.86;100.00;95769.84;4994011;28;101799;-63
2022/08/17 06:11:02;;;;;;;6.93;6.23;;;;;;;19.90;100.00;95766.19;4991031;28;104461;-64
2022/08/17 06:13:44;;;;;;;7.17;6.27;;;;;;;20.03;100.00;95759.78;5012296;28;102014;-64
2022/08/17 06:16:25;;;;;;;5.90;5.20;;;;;;;20.26;100.00;95761.13;5002517;28;105618;-64
2022/08/17 06:19:16;;;;;;;6.13;5.53;;;;;;;20.34;100.00;95764.91;4993654;28;103162;-64
2022/08/17 06:21:47;;;;;;;5.87;5.37;;;;;;;20.33;100.00;95761.41;4993120;28;101871;-64
2022/08/17 06:24:33;;;;;;;5.50;5.10;;;;;;;20.45;100.00;95758.00;5010396;28;106440;-63
2022/08/17 06:27:09;;;;;;;5.63;5.13;;;;;;;20.65;100.00;95763.41;5010650;28;103006;-64
2022/08/17 06:29:43;;;;;;;7.00;5.40;;;;;;;20.75;100.00;95759.53;4991429;28;101963;-64
2022/08/17 06:32:13;;;;;;;5.33;4.90;;;;;;;20.79;100.00;95765.88;4995547;28;103909;-64
2022/08/17 06:34:43;;;;;;;6.27;5.00;;;;;;;21.00;100.00;95767.50;5012675;28;101862;-64
2022/08/17 06:37:33;;;;;;;5.57;5.07;;;;;;;20.96;100.00;95777.38;5012185;28;102125;-64
2022/08/17 06:40:19;;;;;;;5.60;5.10;;;;;;;21.03;100.00;95785.72;5010792;28;106392;-64
2022/08/17 06:42:56;;;;;;;5.53;5.10;;;;;;;20.67;100.00;95798.22;5012224;28;101834;-64
2022/08/17 06:45:28;;;;;;;5.33;4.90;;;;;;;20.55;100.00;95787.34;5010730;28;105163;-64
2022/08/17 06:48:04;;;;;;;5.93;5.37;;;;;;;20.71;100.00;95801.84;5010235;28;105555;-64
2022/08/17 06:50:36;;;;;;;5.53;5.13;;;;;;;20.90;100.00;95797.63;5012416;28;101780;-64
2022/08/17 06:53:12;;;;;;;5.30;4.90;;;;;;;20.92;100.00;95797.28;5010159;28;105019;-64
2022/08/17 06:55:46;;;;;;;4.80;4.40;;;;;;;21.11;100.00;95789.50;5006446;28;102204;-64
2022/08/17 06:58:21;;;;;;;6.00;4.80;;;;;;;21.17;100.00;95790.88;5008274;27;106452;-64
2022/08/17 07:00:50;;;;;;;4.20;3.90;;;;;;;21.22;100.00;95791.47;5034883;27;106827;-64
2022/08/17 07:03:32;;;;;;;5.17;4.63;;;;;;;21.00;100.00;95794.53;5042518;27;101856;-64
2022/08/17 07:06:03;;;;;;;4.77;4.37;;;;;;;21.49;100.00;95798.22;5052212;27;102675;-64
2022/08/17 07:08:44;;;;;;;4.50;4.20;;;;;;;21.14;100.00;95805.06;5049809;27;104874;-64
2022/08/17 07:11:14;;;;;;;4.53;4.13;;;;;;;20.99;100.00;95827.28;5047857;27;101924;-64
2022/08/17 07:13:51;;;;;;;4.80;4.40;;;;;;;21.43;100.00;95821.19;5030462;28;105234;-64
2022/08/17 07:16:24;;;;;;;5.17;4.77;;;;;;;21.58;100.00;95826.00;5038289;27;105656;-64
2022/08/17 07:18:53;;;;;;;4.80;4.30;;;;;;;21.70;100.00;95826.84;5051870;27;102275;-64
2022/08/17 07:21:32;;;;;;;5.17;4.77;;;;;;;21.85;100.00;95825.44;5049864;27;102891;-64
2022/08/17 07:24:13;;;;;;;5.20;4.70;;;;;;;21.85;100.00;95814.59;5050700;27;102023;-64
2022/08/17 07:26:40;;;;;;;4.40;4.10;;;;;;;22.48;100.00;95819.44;5043102;27;105121;-64
2022/08/17 07:29:15;;;;;;;4.50;3.97;;;;;;;22.99;100.00;95829.56;5031057;28;102542;-64
2022/08/17 07:31:42;;;;;;;4.30;4.00;;;;;;;23.19;100.00;95821.28;5031620;27;101953;-64
2022/08/17 07:34:13;;;;;;;4.10;3.70;;;;;;;23.20;100.00;95822.06;5031576;28;102348;-64
2022/08/17 07:36:41;;;;;;;5.97;4.17;;;;;;;22.91;100.00;95816.91;5032161;27;101804;-64
2022/08/17 07:39:09;;;;;;;4.87;3.83;;;;;;;23.27;100.00;95827.72;5034927;28;101725;-64
2022/08/17 07:41:39;;;;;;;5.60;3.90;;;;;;;23.59;100.00;95834.84;5038438;27;102872;-64
2022/08/17 07:44:14;;;;;;;4.63;3.83;;;;;;;23.67;100.00;95837.41;5045247;27;102022;-64
2022/08/17 07:49:39;;;;;;;6.63;4.07;;;;;;;23.29;100.00;95836.28;5037404;27;105428;-64
2022/08/17 07:52:10;;;;;;;6.83;3.70;;;;;;;23.72;100.00;95828.19;5038115;27;101884;-64
2022/08/17 07:54:39;;;;;;;5.77;3.87;;;;;;;24.02;100.00;95834.84;5030764;27;105382;-64
2022/08/17 07:57:36;;;;;;;5.73;3.53;;;;;;;24.39;100.00;95825.31;5050857;27;102576;-64
2022/08/17 08:00:18;;;;;;;6.87;3.90;;;;;;;24.64;100.00;95821.31;4988062;28;102170;-64
2022/08/17 08:02:58;;;;;;;3.93;3.40;;;;;;;24.74;100.00;95816.09;4970893;28;104452;-64
2022/08/17 08:05:28;;;;;;;3.53;3.20;;;;;;;24.67;100.00;95829.56;4969986;28;101924;-64
2022/08/17 08:07:58;;;;;;;6.83;3.67;;;;;;;23.97;100.00;95835.13;4969269;28;102334;-64
2022/08/17 08:10:29;;;;;;;4.80;3.70;;;;;;;24.49;100.00;95839.19;4982571;28;103747;-64
2022/08/17 08:13:09;;;;;;;5.17;3.03;;;;;;;24.56;100.00;95852.94;4970936;28;101926;-64
2022/08/17 08:15:42;;;;;;;4.80;3.20;;;;;;;24.98;100.00;95855.91;4951838;28;105426;-63
2022/08/17 08:18:23;;;;;;;5.70;3.60;;;;;;;24.49;100.00;95860.13;4968597;28;102850;-64
2022/08/17 08:20:54;;;;;;;3.33;3.03;;;;;;;24.72;100.00;95855.69;4969821;28;102781;-64
2022/08/17 08:23:46;;;;;;;3.40;3.10;;;;;;;25.14;100.00;95851.22;4971495;28;104885;-64
2022/08/17 08:26:25;;;;;;;4.83;3.30;;;;;;;25.53;98.86;95858.31;4974440;28;105417;-64
2022/08/17 08:29:03;;;;;;;3.70;3.40;;;;;;;25.79;100.00;95844.84;4971009;28;105565;-64
2022/08/17 08:31:44;;;;;;;3.50;3.13;;;;;;;26.23;96.93;95846.09;4986601;28;102777;-64
2022/08/17 08:34:23;;;;;;;3.70;3.20;;;;;;;26.27;97.27;95845.00;5004902;27;101898;-64
2022/08/17 08:36:58;;;;;;;3.63;3.33;;;;;;;26.29;90.10;95853.59;5051119;27;102685;-64
2022/08/17 08:39:37;;;;;;;3.43;3.10;;;;;;;26.32;91.55;95846.66;5029750;27;103166;-63
2022/08/17 08:42:12;;;;;;;4.63;3.37;;;;;;;26.71;92.30;95837.97;5029277;27;102157;-64
2022/08/17 08:44:48;;;;;;;4.13;3.10;;;;;;;26.85;91.32;95842.84;5029247;28;105461;-64
2022/08/17 08:47:25;;;;;;;3.93;3.43;;;;;;;26.79;93.48;95844.31;5030294;28;103445;-64
2022/08/17 08:50:27;;;;;;;3.43;3.10;;;;;;;26.89;83.82;95844.50;5034375;28;102138;-64
2022/08/17 08:53:07;;;;;;;3.83;3.07;;;;;;;26.70;85.85;95841.06;5028581;28;105826;-65
2022/08/17 08:55:53;;;;;;;3.60;3.30;;;;;;;27.28;81.57;95847.81;5047402;27;101954;-64
2022/08/17 08:58:31;;;;;;;3.07;2.73;;;;;;;27.02;81.75;95848.59;5048828;27;103006;-65
2022/08/17 09:01:01;;;;;;;3.50;3.17;;;;;;;26.94;79.72;95848.84;5028807;28;104010;-63
2022/08/17 09:03:53;;;;;;;3.10;2.90;;;;;;;27.20;81.33;95840.69;5042956;27;101986;-62
2022/08/17 09:06:37;;;;;;;3.43;3.10;;;;;;;27.61;85.51;95834.19;5030972;28;102374;-64
2022/08/17 09:09:16;;;;;;;3.50;3.20;;;;;;;27.67;76.67;95841.69;5028605;28;105610;-64
2022/08/17 09:11:52;;;;;;;3.07;2.87;;;;;;;27.52;76.52;95836.44;5034044;28;101722;-64
2022/08/17 09:14:27;;;;;;;2.90;2.70;;;;;;;27.86;75.98;95827.91;5028224;27;105454;-65
2022/08/17 09:20:27;;;;;;;2.87;2.60;;;;;;;28.62;65.66;95842.75;5029220;28;105481;-64
2022/08/17 09:22:59;;;;;;;3.40;2.73;;;;;;;28.56;57.95;95845.03;5028345;28;106089;-64
2022/08/17 09:25:43;;;;;;;3.23;2.93;;;;;;;28.90;60.32;95837.47;5028914;28;101978;-65
2022/08/17 09:28:18;;;;;;;3.03;2.73;;;;;;;29.40;59.57;95820.22;5028973;28;105363;-65
2022/08/17 09:30:47;;;;;;;3.03;2.80;;;;;;;29.35;53.57;95828.78;5029900;28;102544;-64
2022/08/17 09:33:21;;;;;;;2.97;2.78;;;;;;;29.64;54.49;95822.31;5047645;27;101845;-65
2022/08/17 09:35:56;;;;;;;3.33;2.63;;;;;;;29.71;54.40;95825.09;5033225;27;101758;-65
2022/08/17 09:38:30;;;;;;;2.70;2.50;;;;;;;29.91;53.29;95816.13;5028635;28;102070;-65
2022/08/17 09:41:05;;;;;;;2.80;2.60;;;;;;;30.01;49.17;95822.81;5030546;27;102522;-64
2022/08/17 09:43:42;;;;;;;2.83;2.63;;;;;;;30.03;48.29;95832.22;5032681;27;105587;-64
2022/08/17 09:46:19;;;;;;;3.08;2.88;;;;;;;29.91;50.13;95831.81;5043475;27;102184;-64
2022/08/17 09:49:03;;;;;;;3.47;3.28;;;;;;;30.15;52.04;95839.34;5051010;27;102305;-64
2022/08/17 09:51:35;;;;;;;3.22;2.90;;;;;;;30.25;49.15;95835.84;5031622;28;105327;-65
2022/08/17 09:54:03;;;;;;;3.03;2.83;;;;;;;30.15;48.75;95842.91;5033462;28;101696;-64
2022/08/17 09:56:44;;;;;;;3.22;2.92;;;;;;;29.89;46.50;95840.44;5031848;27;105256;-65
2022/08/17 09:59:36;;;;;;;3.05;2.85;;;;;;;29.45;49.45;95841.75;5041726;27;103264;-64
2022/08/17 10:02:24;;;;;;;2.80;2.60;;;;;;;29.28;48.51;95826.03;5053700;27;102349;-64
2022/08/17 10:05:00;;;;;;;3.53;2.80;;;;;;;29.95;47.47;95821.63;5039580;27;106114;-66
2022/08/17 10:07:34;;;;;;;3.95;2.83;;;;;;;30.02;47.46;95818.94;5033347;28;102145;-65
2022/08/17 10:10:16;;;;;;;3.35;3.00;;;;;;;29.74;47.60;95827.06;5033442;28;102296;-65
2022/08/17 10:12:49;;;;;;;3.00;2.80;;;;;;;30.46;45.74;95833.91;5031262;28;105802;-65
2022/08/17 10:15:36;;;;;;;3.20;2.92;;;;;;;30.79;45.27;95832.78;5031868;28;101962;-64
2022/08/17 10:18:16;;;;;;;5.78;2.70;;;;;;;30.99;44.00;95831.19;5032819;28;102360;-64
2022/08/17 10:20:49;;;;;;;2.70;2.50;;;;;;;30.16;48.04;95828.00;5032691;28;102814;-64
2022/08/17 10:26:18;;;;;;;4.40;3.15;;;;;;;30.65;44.85;95830.00;5032335;28;103379;-64
2022/08/17 10:28:51;;;;;;;4.72;3.00;;;;;;;30.96;43.13;95826.50;5035440;27;101834;-64
2022/08/17 10:31:23;;;;;;;3.03;2.65;;;;;;;30.82;42.82;95816.31;5053445;27;102503;-64
2022/08/17 10:34:05;;;;;;;5.18;3.00;;;;;;;31.11;43.82;95809.59;5050910;27;106093;-64
2022/08/17 10:36:48;;;;;;;2.90;2.70;;;;;;;31.86;41.93;95816.47;5034041;27;103439;-64
2022/08/17 10:39:25;;;;;;;4.10;3.20;;;;;;;31.72;44.01;95814.53;5033034;28;102467;-64
2022/08/17 10:41:59;;;;;;;3.20;3.00;;;;;;;31.96;46.53;95819.19;5030748;28;104452;-64
2022/08/17 10:44:39;;;;;;;5.38;4.50;;;;;;;31.19;41.92;95818.63;5038447;27;101783;-64
2022/08/17 10:47:13;;;;;;;6.13;4.95;;;;;;;30.74;42.60;95808.47;5036432;27;102455;-64
2022/08/17 10:53:03;;;;;;;3.53;2.72;;;;;;;30.24;44.00;95807.63;5031779;27;102760;-65
2022/08/17 10:56:24;;;;;;;3.03;2.80;;;;;;;30.81;43.51;95809.25;5030691;28;104652;-64
2022/08/17 10:58:53;;;;;;;3.63;3.13;;;;;;;30.91;41.89;95818.66;5031662;27;101850;-64
2022/08/17 11:01:44;;;;;;;2.83;2.67;;;;;;;31.10;40.83;95815.47;5031503;27;102314;-65
2022/08/17 11:04:36;;;;;;;3.38;2.95;;;;;;;31.63;40.60;95824.41;5030855;27;103364;-65
2022/08/17 11:07:13;;;;;;;2.70;2.50;;;;;;;32.04;38.78;95820.69;5031506;27;102056;-64
2022/08/17 11:09:57;;;;;;;3.00;2.80;;;;;;;32.57;40.10;95828.63;5030407;28;105214;-65
2022/08/17 11:12:38;;;;;;;2.80;2.60;;;;;;;32.70;38.76;95818.72;5038360;27;105301;-65
2022/08/17 11:15:26;;;;;;;3.30;2.92;;;;;;;32.45;43.43;95818.13;5038998;27;105265;-65
2022/08/17 11:18:12;;;;;;;4.20;2.67;;;;;;;32.56;42.87;95824.31;5051190;27;102062;-65
2022/08/17 11:21:12;;;;;;;3.45;3.15;;;;;;;32.89;41.98;95821.72;5037827;27;102142;-65
2022/08/17 11:24:02;;;;;;;3.65;2.95;;;;;;;33.06;39.30;95817.22;5029944;28;105530;-65
2022/08/17 11:26:32;;;;;;;4.95;2.90;;;;;;;31.89;40.64;95816.47;5029009;28;103101;-65
2022/08/17 11:29:07;;;;;;;3.38;2.60;;;;;;;32.94;41.02;95815.00;5031665;28;101978;-65
2022/08/17 11:31:39;;;;;;;2.75;2.63;;;;;;;32.93;38.17;95816.97;5031623;27;102459;-65
2022/08/17 11:34:13;;;;;;;3.15;2.85;;;;;;;31.82;40.73;95815.72;5053740;27;102816;-65
2022/08/17 11:37:12;;;;;;;3.00;2.63;;;;;;;30.90;41.62;95811.59;5031580;28;102320;-66
2022/08/17 11:39:59;;;;;;;3.70;3.20;;;;;;;30.88;41.78;95797.47;5029173;27;105527;-64
2022/08/17 11:42:38;;;;;;;3.20;2.53;;;;;;;31.29;41.46;95801.34;5031227;27;101834;-65
2022/08/17 11:45:35;;;;;;;5.13;2.90;;;;;;;31.31;40.15;95788.00;5040057;27;102341;-65
2022/08/17 11:54:13;;;;;;;2.90;2.70;;;;;;;32.64;40.44;95810.09;5043584;27;102785;-65
2022/08/17 11:56:45;;;;;;;2.70;2.47;;;;;;;32.89;38.29;95820.94;5030623;27;102523;-65
2022/08/17 11:59:49;;;;;;;3.05;2.85;;;;;;;33.01;39.49;95810.19;5032545;28;102185;-65
2022/08/17 12:02:41;;;;;;;2.70;2.38;;;;;;;33.15;36.97;95806.53;5036907;27;103085;-65
2022/08/17 12:05:34;;;;;;;4.40;2.67;;;;;;;32.04;36.73;95809.69;5030775;27;101825;-65
2022/08/17 12:08:16;;;;;;;4.00;2.60;;;;;;;32.39;36.11;95806.75;5034994;27;102839;-65
2022/08/17 12:10:57;;;;;;;3.08;2.72;;;;;;;33.05;36.24;95810.16;5029886;27;103172;-64
2022/08/17 12:13:26;;;;;;;3.15;2.55;;;;;;;32.14;35.60;95828.13;5031712;27;101855;-65
2022/08/17 12:15:56;;;;;;;2.83;2.50;;;;;;;32.61;35.50;95810.13;5035513;27;102977;-64
2022/08/17 12:18:28;;;;;;;2.70;2.60;;;;;;;32.73;34.85;95806.88;5050397;27;102640;-65
2022/08/17 12:21:22;;;;;;;2.85;2.65;;;;;;;33.12;34.99;95812.88;5049325;27;102105;-65
2022/08/17 12:23:56;;;;;;;3.22;2.83;;;;;;;32.13;36.47;95809.25;5033174;27;102481;-65
2022/08/17 12:26:26;;;;;;;4.43;2.60;;;;;;;32.46;35.50;95803.16;5045940;27;102224;-65
2022/08/17 12:28:59;;;;;;;2.80;2.53;;;;;;;33.36;34.21;95804.38;5050029;27;102376;-65
2022/08/17 12:31:28;;;;;;;3.35;2.65;;;;;;;33.68;34.31;95804.75;5047626;27;105876;-65
2022/08/17 12:33:59;;;;;;;3.20;2.90;;;;;;;33.17;36.73;95795.88;5049302;27;102128;-65
2022/08/17 12:36:28;;;;;;;3.17;2.67;;;;;;;32.50;37.39;95792.91;5049786;27;102247;-66